Terminal Aerodrome Forecast
Issued by NWS

Home | Current Version | Previous Version | Text Only | Print | Product List | Glossary On
Versions: 1 2 3 4 5 6 7 8 9 10 11 12 13 14 15
000
FTUS44 KOUN 160911 AAA
TAFHBR
TAF AMD
KHBR 160911Z 1609/1706 32004KT 5SM BR OVC005
     FM161500 27008KT 1SM BR OVC007
     FM161800 30011KT P6SM OVC015
     FM162100 31013G18KT P6SM OVC250
     FM170000 33008KT P6SM OVC250=

USA.gov is the U.S. government's official web portal to all federal, state and local government web resources and services.